NKS1455 KEYW-KFLL
Flight info
| Callsign | NKS1455 |
|---|---|
| Flight time | 0h 31m |
| Altitude | 17000 |
| Route | BUFTT1 BUFTT PYREX BHHIA3 |
| Aircraft | A321/M-SDE3FGHIRWY/LB1 |
Departure
| Time | 2026-05-03 22:09 |
|---|---|
| Airport | Key West International Airport (KEYW) |
Arrival
| Time | 2026-05-03 22:40 |
|---|---|
| Airport | Fort Lauderdale Hollywood International Airport (KFLL) |
| Time | Latitude | Longitude | Altitude | Speed | Heading |
|---|---|---|---|---|---|
| 2026-05-03 21:26 | 24.55442 | -81.75460 | 13 ft | 0 kts | 180° |
| 2026-05-03 21:47 | 24.55459 | -81.75460 | 13 ft | 4 kts | 192° |
| 2026-05-03 21:47 | 24.55482 | -81.75448 | 13 ft | 4 kts | 232° |
| 2026-05-03 21:48 | 24.55490 | -81.75428 | 12 ft | 1 kts | 269° |
| 2026-05-03 22:04 | 24.55489 | -81.75448 | 21 ft | 6 kts | 269° |
| 2026-05-03 22:04 | 24.55491 | -81.75499 | 12 ft | 7 kts | 285° |
| 2026-05-03 22:04 | 24.55527 | -81.75537 | 12 ft | 8 kts | 295° |
| 2026-05-03 22:04 | 24.55530 | -81.75612 | 13 ft | 11 kts | 269° |
| 2026-05-03 22:05 | 24.55529 | -81.75704 | 12 ft | 13 kts | 269° |
| 2026-05-03 22:05 | 24.55528 | -81.75811 | 12 ft | 15 kts | 269° |
| 2026-05-03 22:05 | 24.55527 | -81.75930 | 12 ft | 16 kts | 269° |
| 2026-05-03 22:05 | 24.55525 | -81.76061 | 12 ft | 18 kts | 269° |
| 2026-05-03 22:06 | 24.55525 | -81.76204 | 12 ft | 19 kts | 270° |
| 2026-05-03 22:06 | 24.55522 | -81.76357 | 12 ft | 21 kts | 269° |
| 2026-05-03 22:06 | 24.55521 | -81.76519 | 12 ft | 22 kts | 270° |
| 2026-05-03 22:06 | 24.55521 | -81.76619 | 12 ft | 6 kts | 277° |
| 2026-05-03 22:07 | 24.55530 | -81.76637 | 13 ft | 0 kts | 312° |
| 2026-05-03 22:07 | 24.55542 | -81.76647 | 11 ft | 5 kts | 328° |
| 2026-05-03 22:08 | 24.55589 | -81.76647 | 11 ft | 8 kts | 22° |
| 2026-05-03 22:08 | 24.55606 | -81.76587 | 11 ft | 10 kts | 89° |
| 2026-05-03 22:08 | 24.55607 | -81.76510 | 10 ft | 13 kts | 89° |
| 2026-05-03 22:08 | 24.55612 | -81.76097 | 11 ft | 99 kts | 89° |
| 2026-05-03 22:09 | 24.55624 | -81.75075 | 179 ft | 155 kts | 85° |
| 2026-05-03 22:09 | 24.55723 | -81.73849 | 921 ft | 163 kts | 69° |
| 2026-05-03 22:09 | 24.56415 | -81.72892 | 1628 ft | 162 kts | 32° |
| 2026-05-03 22:10 | 24.58825 | -81.72496 | 2007 ft | 200 kts | 359° |
| 2026-05-03 22:10 | 24.60316 | -81.72442 | 2152 ft | 224 kts | 359° |
| 2026-05-03 22:10 | 24.61928 | -81.72374 | 2400 ft | 245 kts | 0° |
| 2026-05-03 22:10 | 24.63700 | -81.72291 | 2792 ft | 264 kts | 360° |
| 2026-05-03 22:11 | 24.65560 | -81.72199 | 3511 ft | 270 kts | 0° |
| 2026-05-03 22:11 | 24.67446 | -81.72100 | 4299 ft | 275 kts | 359° |
| 2026-05-03 22:11 | 24.69383 | -81.71998 | 4820 ft | 282 kts | 0° |
| 2026-05-03 22:11 | 24.71324 | -81.71606 | 4964 ft | 287 kts | 17° |
| 2026-05-03 22:12 | 24.73094 | -81.70600 | 4988 ft | 286 kts | 35° |
| 2026-05-03 22:12 | 24.74540 | -81.69088 | 4997 ft | 290 kts | 46° |
| 2026-05-03 22:12 | 24.75935 | -81.67436 | 4999 ft | 290 kts | 46° |
| 2026-05-03 22:12 | 24.77317 | -81.65815 | 4997 ft | 291 kts | 46° |
| 2026-05-03 22:13 | 24.78684 | -81.64220 | 4989 ft | 290 kts | 45° |
| 2026-05-03 22:13 | 24.80067 | -81.62609 | 4990 ft | 290 kts | 45° |
| 2026-05-03 22:13 | 24.81455 | -81.60992 | 5112 ft | 294 kts | 45° |
| 2026-05-03 22:13 | 24.82886 | -81.59384 | 5935 ft | 294 kts | 40° |
| 2026-05-03 22:14 | 24.84529 | -81.58051 | 6746 ft | 295 kts | 29° |
| 2026-05-03 22:14 | 24.86285 | -81.56863 | 7483 ft | 298 kts | 29° |
| 2026-05-03 22:14 | 24.88055 | -81.55659 | 8243 ft | 301 kts | 29° |
| 2026-05-03 22:14 | 24.89847 | -81.54437 | 8993 ft | 304 kts | 29° |
| 2026-05-03 22:15 | 24.91654 | -81.53201 | 9751 ft | 307 kts | 28° |
| 2026-05-03 22:15 | 24.93487 | -81.51947 | 10322 ft | 317 kts | 28° |
| 2026-05-03 22:15 | 24.95430 | -81.50624 | 10496 ft | 340 kts | 29° |
| 2026-05-03 22:15 | 24.97496 | -81.49217 | 10809 ft | 356 kts | 29° |
| 2026-05-03 22:16 | 24.99648 | -81.47746 | 11396 ft | 362 kts | 29° |
| 2026-05-03 22:16 | 25.01764 | -81.46292 | 12022 ft | 366 kts | 29° |
| 2026-05-03 22:16 | 25.03934 | -81.44797 | 12663 ft | 370 kts | 29° |
| 2026-05-03 22:16 | 25.06129 | -81.43286 | 13291 ft | 374 kts | 29° |
| 2026-05-03 22:17 | 25.08349 | -81.41762 | 13915 ft | 378 kts | 28° |
| 2026-05-03 22:17 | 25.10597 | -81.40220 | 14421 ft | 383 kts | 28° |
| 2026-05-03 22:17 | 25.12871 | -81.38658 | 14971 ft | 387 kts | 28° |
| 2026-05-03 22:17 | 25.15170 | -81.37080 | 15517 ft | 391 kts | 28° |
| 2026-05-03 22:18 | 25.17491 | -81.35485 | 16064 ft | 395 kts | 28° |
| 2026-05-03 22:18 | 25.19839 | -81.33871 | 16618 ft | 399 kts | 28° |
| 2026-05-03 22:18 | 25.22197 | -81.32214 | 16930 ft | 404 kts | 32° |
| 2026-05-03 22:18 | 25.24401 | -81.30270 | 17011 ft | 406 kts | 37° |
| 2026-05-03 22:19 | 25.26575 | -81.28277 | 17023 ft | 406 kts | 37° |
| 2026-05-03 22:19 | 25.28743 | -81.26287 | 17022 ft | 405 kts | 37° |
| 2026-05-03 22:19 | 25.30911 | -81.24297 | 17023 ft | 405 kts | 37° |
| 2026-05-03 22:19 | 25.33076 | -81.22311 | 17007 ft | 402 kts | 37° |
| 2026-05-03 22:20 | 25.35187 | -81.20374 | 16194 ft | 390 kts | 37° |
| 2026-05-03 22:20 | 25.37276 | -81.18459 | 15466 ft | 375 kts | 37° |
| 2026-05-03 22:20 | 25.39226 | -81.16667 | 15060 ft | 355 kts | 36° |
| 2026-05-03 22:20 | 25.41079 | -81.14965 | 14636 ft | 339 kts | 36° |
| 2026-05-03 22:21 | 25.42857 | -81.13333 | 14236 ft | 329 kts | 36° |
| 2026-05-03 22:21 | 25.44626 | -81.11714 | 13820 ft | 330 kts | 36° |
| 2026-05-03 22:21 | 25.46366 | -81.10119 | 13384 ft | 328 kts | 36° |
| 2026-05-03 22:21 | 25.48119 | -81.08511 | 12972 ft | 326 kts | 36° |
| 2026-05-03 22:22 | 25.49895 | -81.06880 | 12569 ft | 328 kts | 36° |
| 2026-05-03 22:22 | 25.51649 | -81.05269 | 12166 ft | 327 kts | 36° |
| 2026-05-03 22:22 | 25.53376 | -81.03682 | 11766 ft | 327 kts | 36° |
| 2026-05-03 22:22 | 25.55129 | -81.02073 | 11338 ft | 328 kts | 37° |
| 2026-05-03 22:23 | 25.56880 | -81.00462 | 10926 ft | 327 kts | 37° |
| 2026-05-03 22:23 | 25.58631 | -80.98849 | 10520 ft | 327 kts | 37° |
| 2026-05-03 22:23 | 25.60387 | -80.97254 | 10141 ft | 325 kts | 33° |
| 2026-05-03 22:23 | 25.62316 | -80.96069 | 9931 ft | 312 kts | 17° |
| 2026-05-03 22:24 | 25.64376 | -80.95501 | 9741 ft | 303 kts | 2° |
| 2026-05-03 22:24 | 25.66467 | -80.95319 | 9358 ft | 300 kts | 360° |
| 2026-05-03 22:24 | 25.68548 | -80.95150 | 8980 ft | 300 kts | 360° |
| 2026-05-03 22:24 | 25.70621 | -80.94979 | 8604 ft | 298 kts | 0° |
| 2026-05-03 22:25 | 25.72689 | -80.94808 | 8229 ft | 297 kts | 0° |
| 2026-05-03 22:25 | 25.74749 | -80.94638 | 7865 ft | 297 kts | 0° |
| 2026-05-03 22:25 | 25.76799 | -80.94464 | 7516 ft | 296 kts | 0° |
| 2026-05-03 22:25 | 25.78852 | -80.94292 | 7168 ft | 294 kts | 0° |
| 2026-05-03 22:26 | 25.80867 | -80.94123 | 7002 ft | 288 kts | 0° |
| 2026-05-03 22:26 | 25.82866 | -80.93954 | 7010 ft | 289 kts | 0° |
| 2026-05-03 22:26 | 25.84880 | -80.93784 | 7014 ft | 291 kts | 1° |
| 2026-05-03 22:26 | 25.86888 | -80.93545 | 7007 ft | 291 kts | 8° |
| 2026-05-03 22:27 | 25.88811 | -80.92804 | 7011 ft | 296 kts | 24° |
| 2026-05-03 22:27 | 25.90618 | -80.91697 | 7013 ft | 297 kts | 26° |
| 2026-05-03 22:27 | 25.92423 | -80.90590 | 7008 ft | 296 kts | 26° |
| 2026-05-03 22:27 | 25.94224 | -80.89487 | 7011 ft | 296 kts | 26° |
| 2026-05-03 22:28 | 25.96026 | -80.88383 | 7011 ft | 296 kts | 26° |
| 2026-05-03 22:28 | 25.97828 | -80.87280 | 7026 ft | 295 kts | 26° |
| 2026-05-03 22:28 | 25.99544 | -80.86028 | 7019 ft | 297 kts | 40° |
| 2026-05-03 22:28 | 26.00881 | -80.84279 | 7016 ft | 299 kts | 58° |
| 2026-05-03 22:29 | 26.01706 | -80.82165 | 6870 ft | 297 kts | 76° |
| 2026-05-03 22:29 | 26.02073 | -80.79990 | 6727 ft | 274 kts | 81° |
| 2026-05-03 22:29 | 26.02388 | -80.77982 | 6518 ft | 257 kts | 81° |
| 2026-05-03 22:29 | 26.02694 | -80.76051 | 6354 ft | 249 kts | 81° |
| 2026-05-03 22:30 | 26.03091 | -80.74221 | 6223 ft | 238 kts | 68° |
| 2026-05-03 22:30 | 26.03747 | -80.72576 | 6095 ft | 228 kts | 64° |
| 2026-05-03 22:30 | 26.04429 | -80.71037 | 5950 ft | 218 kts | 63° |
| 2026-05-03 22:30 | 26.05101 | -80.69546 | 5697 ft | 214 kts | 63° |
| 2026-05-03 22:31 | 26.05764 | -80.68073 | 5426 ft | 212 kts | 63° |
| 2026-05-03 22:31 | 26.06425 | -80.66613 | 5146 ft | 211 kts | 63° |
| 2026-05-03 22:31 | 26.07052 | -80.65150 | 4856 ft | 209 kts | 71° |
| 2026-05-03 22:31 | 26.07210 | -80.63568 | 4554 ft | 205 kts | 94° |
| 2026-05-03 22:32 | 26.07154 | -80.61984 | 4252 ft | 205 kts | 93° |
| 2026-05-03 22:32 | 26.07100 | -80.60418 | 4086 ft | 202 kts | 93° |
| 2026-05-03 22:32 | 26.07044 | -80.58845 | 4029 ft | 206 kts | 91° |
| 2026-05-03 22:32 | 26.06986 | -80.57213 | 4028 ft | 217 kts | 90° |
| 2026-05-03 22:33 | 26.06942 | -80.55502 | 4017 ft | 223 kts | 94° |
| 2026-05-03 22:33 | 26.06882 | -80.53767 | 3997 ft | 224 kts | 96° |
| 2026-05-03 22:33 | 26.06820 | -80.52105 | 3986 ft | 209 kts | 93° |
| 2026-05-03 22:33 | 26.06760 | -80.50502 | 4007 ft | 208 kts | 92° |
| 2026-05-03 22:34 | 26.06730 | -80.48898 | 4019 ft | 207 kts | 90° |
| 2026-05-03 22:34 | 26.06730 | -80.47300 | 4018 ft | 206 kts | 90° |
| 2026-05-03 22:34 | 26.06727 | -80.45699 | 4017 ft | 206 kts | 91° |
| 2026-05-03 22:34 | 26.06721 | -80.44099 | 4015 ft | 209 kts | 91° |
| 2026-05-03 22:35 | 26.06715 | -80.42488 | 4016 ft | 207 kts | 91° |
| 2026-05-03 22:35 | 26.06709 | -80.40885 | 4018 ft | 207 kts | 91° |
| 2026-05-03 22:35 | 26.06703 | -80.39295 | 3962 ft | 206 kts | 90° |
| 2026-05-03 22:35 | 26.06697 | -80.37702 | 3731 ft | 206 kts | 91° |
| 2026-05-03 22:36 | 26.06689 | -80.36110 | 3487 ft | 205 kts | 90° |
| 2026-05-03 22:36 | 26.06684 | -80.34529 | 3243 ft | 204 kts | 89° |
| 2026-05-03 22:36 | 26.06677 | -80.33004 | 2955 ft | 197 kts | 90° |
| 2026-05-03 22:36 | 26.06669 | -80.31462 | 2701 ft | 196 kts | 90° |
| 2026-05-03 22:37 | 26.06662 | -80.29952 | 2450 ft | 194 kts | 90° |
| 2026-05-03 22:37 | 26.06654 | -80.28461 | 2197 ft | 192 kts | 89° |
| 2026-05-03 22:37 | 26.06647 | -80.27021 | 1957 ft | 175 kts | 89° |
| 2026-05-03 22:37 | 26.06641 | -80.25774 | 1740 ft | 156 kts | 88° |
| 2026-05-03 22:38 | 26.06635 | -80.24600 | 1537 ft | 149 kts | 88° |
| 2026-05-03 22:38 | 26.06629 | -80.23464 | 1351 ft | 146 kts | 89° |
| 2026-05-03 22:38 | 26.06623 | -80.22342 | 1159 ft | 145 kts | 88° |
| 2026-05-03 22:38 | 26.06614 | -80.21225 | 964 ft | 144 kts | 88° |
| 2026-05-03 22:39 | 26.06606 | -80.20113 | 768 ft | 143 kts | 86° |
| 2026-05-03 22:39 | 26.06593 | -80.19010 | 579 ft | 143 kts | 88° |
| 2026-05-03 22:39 | 26.06584 | -80.17906 | 408 ft | 143 kts | 86° |
| 2026-05-03 22:39 | 26.06589 | -80.16803 | 231 ft | 143 kts | 90° |
| 2026-05-03 22:40 | 26.06584 | -80.15690 | 45 ft | 144 kts | 86° |
| 2026-05-03 22:40 | 26.06583 | -80.14712 | 29 ft | 103 kts | 90° |
| 2026-05-03 22:40 | 26.06578 | -80.14106 | 68 ft | 53 kts | 90° |
| 2026-05-03 22:40 | 26.06601 | -80.13813 | 69 ft | 32 kts | 66° |
| 2026-05-03 22:41 | 26.06673 | -80.13729 | 64 ft | 9 kts | 38° |
| 2026-05-03 22:41 | 26.06727 | -80.13727 | 72 ft | 9 kts | 327° |
| 2026-05-03 22:41 | 26.06743 | -80.13794 | 75 ft | 10 kts | 271° |
| 2026-05-03 22:41 | 26.06744 | -80.13880 | 67 ft | 11 kts | 270° |
| 2026-05-03 22:42 | 26.06742 | -80.13970 | 69 ft | 13 kts | 264° |
| 2026-05-03 22:42 | 26.06711 | -80.14061 | 66 ft | 12 kts | 244° |
| 2026-05-03 22:42 | 26.06677 | -80.14177 | 55 ft | 20 kts | 267° |
| 2026-05-03 22:42 | 26.06678 | -80.14338 | 49 ft | 10 kts | 270° |
| 2026-05-03 22:43 | 26.06678 | -80.14419 | 47 ft | 12 kts | 269° |
| 2026-05-03 22:43 | 26.06676 | -80.14531 | 43 ft | 16 kts | 269° |
| 2026-05-03 22:43 | 26.06676 | -80.14686 | 31 ft | 24 kts | 270° |
| 2026-05-03 22:43 | 26.06681 | -80.14840 | 20 ft | 17 kts | 279° |
| 2026-05-03 22:44 | 26.06704 | -80.14906 | 18 ft | 10 kts | 308° |
| 2026-05-03 22:44 | 26.06766 | -80.14855 | 15 ft | 13 kts | 89° |
| 2026-05-03 22:44 | 26.06766 | -80.14764 | 15 ft | 7 kts | 90° |
| 2026-05-03 22:44 | 26.06766 | -80.14762 | 15 ft | 0 kts | 90° |
| 2026-05-03 22:45 | 26.06766 | -80.14761 | 15 ft | 1 kts | 90° |
| 2026-05-03 22:45 | 26.06766 | -80.14740 | 15 ft | 4 kts | 90° |
| 2026-05-03 22:45 | 26.06766 | -80.14699 | 15 ft | 6 kts | 90° |
| 2026-05-03 22:45 | 26.06766 | -80.14643 | 16 ft | 5 kts | 90° |
| 2026-05-03 22:46 | 26.06766 | -80.14640 | 15 ft | 0 kts | 90° |
| 2026-05-03 22:46 | 26.06766 | -80.14632 | 16 ft | 3 kts | 88° |
| 2026-05-03 22:46 | 26.06783 | -80.14596 | 16 ft | 7 kts | 43° |
| 2026-05-03 22:46 | 26.06816 | -80.14551 | 16 ft | 8 kts | 72° |
| 2026-05-03 22:47 | 26.06829 | -80.14492 | 16 ft | 7 kts | 47° |
| 2026-05-03 22:47 | 26.06870 | -80.14474 | 16 ft | 5 kts | 359° |
| 2026-05-03 22:47 | 26.06884 | -80.14474 | 16 ft | 0 kts | 0° |